CYLC

Kimmirut Airport

Kimmirut, Canada
METAR CYLC 161800Z 18004KT 10SM -SN SCT014 BKN018 M22/M25 A2969 RMK ST3SC4 SLP061
Observed Flight Rules
Jan-16 @ 18:00 UTC (29 minutes ago) Marginal Visual Flight Rules
Wind Visibility Clouds Conditions
180° at 4 knots 10 miles
  • Scattered at 1,400' AGL
  • Broken at 1,800' AGL
  • Light Snow
Temperatures Readings
Current -22°C / -8°F
Dewpoint -25°C / -13°F
Humidity 77%
Altimeter 29.69" Hg
Pressure 1006.1 hPa
Elevation 53
METAR CYLC 161800Z 18004KT 10SM -SN SCT014 BKN018 M22/M25 A2969 RMK ST3SC4 SLP061
Observed Flight Rules
Jan-16 @ 18:00 UTC
(29 minutes ago)
MVFR
Wind Visibility
180° at 4 knots 10 miles
Clouds
  • Scattered at 1,400' AGL
  • Broken at 1,800' AGL
Conditions
  • Light Snow
Temperature Dewpoint
-22°C / -8°F -25°C / -13°F
Humidity Altimeter Pressure
77% 29.69" Hg 1006.1 hPa